Latest Weather Observations for Gelantipy

IDV60801

Issued at 9:31 pm EDT Sunday 1 March 2015 (issued every 30 minutes, with the page automatically refreshed every 10 minutes)

About weather observations | Map of weather stations | Latest weather observations for VIC | Other Formats
Station Details ID: 084142 Name: GELANTIPY Lat: -37.22 Lon: 148.26 Height: 755.0 m
Data from the previous 72 hours. | See also: Recent months at Gelantipy
Date/Time
EDT
Temp
°C
App
Temp
°C
Dew
Point
Rel
Hum
%
Delta-T
°C
Wind Press
QNH
hPa
Press
MSL
hPa
Rain
since 9 am
mm
Dir
 
Spd
km/h
Gust
km/h
Spd
kts
Gust
kts
01/09:30pm 11.1 9.9 9.7 91 0.7 SSW 6 11 3 6 1018.3 1016.4 1.6
01/09:00pm 11.3 9.6 9.7 90 0.8 SSW 9 15 5 8 1018.0 1016.0 1.6
01/08:30pm 11.4 9.2 9.5 88 1.0 SSW 11 20 6 11 1017.7 1015.7 1.6
01/08:00pm 11.7 9.9 9.6 87 1.1 S 9 15 5 8 1017.3 1015.3 1.6
01/07:30pm 12.1 10.0 9.7 85 1.3 SSW 11 19 6 10 1016.8 1014.8 1.6
01/07:00pm 12.7 10.8 10.4 86 1.2 SSW 11 17 6 9 1016.5 1014.5 1.6
01/06:30pm 13.5 11.3 10.7 83 1.5 SSW 13 20 7 11 1016.0 1014.0 1.6
01/06:00pm 13.4 11.0 10.0 80 1.8 SSW 13 24 7 13 1015.6 1013.5 1.6
01/05:30pm 13.5 10.3 9.9 79 1.9 S 17 30 9 16 1015.1 1013.1 1.6
01/05:00pm 13.9 11.7 10.7 81 1.7 S 13 22 7 12 1014.8 1012.8 1.6
01/04:30pm 13.7 10.6 10.3 80 1.8 S 17 28 9 15 1014.7 1012.6 1.6
01/04:00pm 13.0 10.8 10.7 86 1.2 S 13 20 7 11 1014.4 1012.3 1.6
01/03:30pm 13.5 10.6 9.6 77 2.1 SW 15 28 8 15 1014.3 1012.2 1.6
01/03:00pm 13.0 10.4 9.4 79 1.9 SSW 13 22 7 12 1014.0 1012.0 1.6
01/02:30pm 13.2 10.3 9.5 78 2.0 SW 15 26 8 14 1013.7 1011.7 1.6
01/02:00pm 12.2 10.1 9.8 85 1.3 SSW 11 19 6 10 1013.8 1011.8 1.6
01/01:30pm 11.3 8.9 10.0 92 0.7 SSW 13 22 7 12 1013.7 1011.7 1.6
01/01:00pm 11.6 9.2 10.0 90 0.9 SSW 13 19 7 10 1013.4 1011.3 1.6
01/12:30pm 11.7 9.0 10.3 91 0.7 SSW 15 22 8 12 1013.1 1011.0 1.6
01/12:00pm 11.2 8.2 10.6 96 0.3 SW 17 24 9 13 1012.9 1010.8 1.6
01/11:30am 11.0 8.4 10.8 99 0.1 SW 15 22 8 12 1012.8 1010.7 1.6
01/11:00am 11.1 8.6 10.9 99 0.1 SW 15 22 8 12 1012.3 1010.2 1.2
01/10:30am 10.9 8.7 10.7 99 0.1 SSW 13 20 7 11 1011.9 1009.0 1.0
01/10:00am 11.5 9.1 11.3 99 0.1 SSW 15 24 8 13 1011.1 1008.3 0.6
01/09:30am 12.1 9.8 11.9 99 0.1 SSW 15 28 8 15 1010.5 1007.6 0.2
01/09:00am 12.5 10.0 12.3 99 0.1 S 17 26 9 14 1009.8 1007.0 4.0
01/08:30am 13.8 12.1 13.5 98 0.2 S 15 30 8 16 1009.5 1006.6 3.4
01/08:00am 14.8 14.5 14.5 98 0.2 SW 9 13 5 7 1009.2 1006.3 2.4
01/07:30am 14.9 14.2 14.4 97 0.3 S 11 19 6 10 1007.7 1004.8 1.8
01/07:00am 16.1 15.6 13.9 87 1.3 SSW 9 17 5 9 1007.5 1004.6 0.6
01/06:30am 16.8 15.2 12.9 78 2.3 W 13 19 7 10 1006.1 1003.1 0.4
01/06:00am 18.4 14.9 12.2 67 3.6 NNW 22 46 12 25 1006.0 1003.0 0.2
01/05:30am 15.8 13.2 13.3 85 1.4 N 19 26 10 14 1004.9 1001.9 0.0
01/05:00am 15.1 12.8 14.1 94 0.6 NNE 19 24 10 13 1005.2 1002.3 0.0
01/04:30am 15.3 16.3 14.2 93 0.6 NW 2 13 1 7 1005.8 1002.8 0.0
01/04:00am 15.7 15.9 14.1 90 0.9 S 6 11 3 6 1006.8 1003.9 0.0
01/03:30am 15.7 15.6 13.9 89 1.1 W 7 17 4 9 1007.7 1004.8 0.0
01/03:00am 16.2 15.7 13.7 85 1.5 SE 9 13 5 7 1006.6 1003.7 0.0
01/02:30am 16.8 16.1 13.3 80 2.0 S 9 17 5 9 1007.1 1004.1 0.0
01/02:00am 17.5 16.7 13.0 75 2.6 SW 9 13 5 7 1007.2 1004.2 0.0
01/01:30am 19.1 16.9 12.1 64 4.0 S 15 28 8 15 1007.3 1004.3 0.0
01/01:00am 18.6 16.0 12.1 66 3.7 N 17 20 9 11 1005.8 1002.8 0.0
01/12:30am 18.9 15.0 12.2 65 3.9 NNE 24 30 13 16 1005.2 1002.3 0.0
01/12:00am 18.9 15.8 12.2 65 3.9 NNE 20 26 11 14 1005.7 1002.7 0.0
 
Date/Time
EDT
Temp
°C
App
Temp
°C
Dew
Point
Rel
Hum
%
Delta-T
°C
Wind Press
QNH
hPa
Press
MSL
hPa
Rain
since 9 am
mm
Dir
 
Spd
km/h
Gust
km/h
Spd
kts
Gust
kts
28/11:30pm 19.1 15.5 11.7 62 4.2 NNE 22 28 12 15 1005.8 1002.8 0.0
28/11:00pm 18.8 16.3 12.3 66 3.8 NNE 17 20 9 11 1006.6 1003.7 0.0
28/10:30pm 19.2 17.4 13.2 68 3.5 NNE 15 19 8 10 1007.2 1004.2 0.0
28/10:00pm 18.8 17.3 13.0 69 3.4 NNE 13 17 7 9 1007.3 1004.3 0.0
28/09:30pm 18.8 18.5 14.3 75 2.7 NNE 9 11 5 6 1007.9 1005.0 0.0
28/09:00pm 19.0 18.7 14.3 74 2.8 NNE 9 11 5 6 1008.2 1005.3 0.0
28/08:30pm 19.3 20.5 14.8 75 2.7 NNE 2 9 1 5 1008.5 1005.5 0.0
28/08:00pm 20.4 21.0 15.4 73 3.1 NNE 6 7 3 4 1008.3 1005.4 0.0
28/07:30pm 21.1 21.8 16.1 73 3.1 NW 7 9 4 5 1008.3 1005.4 0.0
28/07:00pm 21.6 22.6 16.3 72 3.3 NE 6 9 3 5 1008.1 1005.2 0.0
28/06:30pm 22.0 24.8 18.0 78 2.6 CALM 0 0 0 0 1008.3 1005.4 0.0
28/06:00pm 21.9 23.5 17.9 78 2.6 NW 6 9 3 5 1008.5 1005.5 0.0
28/05:30pm 22.5 23.7 17.4 73 3.3 NNE 7 15 4 8 1008.5 1005.5 0.0
28/05:00pm 23.3 24.9 14.8 59 5.2 CALM 0 6 0 3 1008.6 1005.6 0.0
28/04:30pm 23.8 23.1 13.1 51 6.4 NE 9 17 5 9 1008.6 1005.6 0.0
28/04:00pm 24.4 24.1 12.7 48 7.0 NNW 6 9 3 5 1008.6 1005.6 0.0
28/03:30pm 24.4 24.2 13.6 51 6.5 NNW 7 13 4 7 1008.7 1005.8 0.0
28/03:00pm 24.4 24.1 14.5 54 6.1 NE 9 11 5 6 1008.6 1005.6 0.0
28/02:30pm 24.1 23.7 14.2 54 6.0 NNE 9 15 5 8 1008.9 1006.0 0.0
28/02:00pm 23.3 22.0 14.8 59 5.2 NNE 15 20 8 11 1009.1 1006.2 0.0
28/01:30pm 23.1 21.1 12.7 52 6.2 N 15 20 8 11 1009.2 1006.3 0.0
28/01:00pm 23.3 22.0 13.8 55 5.7 N 13 17 7 9 1009.4 1006.5 0.0
28/12:30pm 22.9 23.2 16.9 69 3.8 NE 11 15 6 8 1010.0 1007.1 0.0
28/12:00pm 22.1 21.7 16.1 69 3.7 NNE 13 17 7 9 1010.2 1007.3 0.0
28/11:30am 20.7 19.4 16.9 79 2.4 NNE 19 22 10 12 1010.3 1007.4 0.0
28/11:00am 20.1 18.6 16.3 79 2.4 NNE 19 20 10 11 1010.3 1007.4 0.0
28/10:30am 19.1 16.9 16.0 82 1.9 NNE 22 28 12 15 1010.0 1007.1 0.0
28/10:00am 17.8 15.8 15.4 86 1.5 NE 20 28 11 15 1010.1 1007.2 0.0
28/09:30am 17.5 15.1 15.5 88 1.2 NNE 22 30 12 16 1010.0 1007.1 0.0
28/09:00am 16.5 14.4 15.2 92 0.8 NNE 20 32 11 17 1009.8 1007.0 0.0
28/08:30am 16.2 12.9 14.9 92 0.8 NNE 26 33 14 18 1009.7 1006.9 0.0
28/08:00am 16.0 13.0 14.9 93 0.7 NNE 24 30 13 16 1010.0 1007.1 0.0
28/07:30am 15.7 14.0 14.6 93 0.7 NNE 17 24 9 13 1010.3 1007.4 0.0
28/07:00am 15.6 13.8 14.5 93 0.7 NNE 17 24 9 13 1010.5 1007.6 0.0
28/06:30am 15.6 13.4 14.5 93 0.7 NNE 19 24 10 13 1010.3 1007.4 0.0
28/06:00am 15.5 13.7 14.5 94 0.6 NNE 17 22 9 12 1010.2 1007.3 0.0
28/05:30am 15.2 14.5 14.4 95 0.5 NE 11 15 6 8 1010.1 1007.2 0.0
28/05:00am 14.9 14.2 14.3 96 0.4 NNE 11 13 6 7 1010.0 1007.1 0.0
28/04:30am 14.2 14.6 13.7 97 0.3 NNE 4 9 2 5 1010.2 1007.3 0.0
28/04:00am 14.3 15.5 13.8 97 0.3 CALM 0 0 0 0 1010.7 1007.8 0.0
28/03:30am 14.5 15.8 14.0 97 0.3 CALM 0 0 0 0 1011.1 1008.3 0.0
28/03:00am 14.2 15.4 13.7 97 0.3 CALM 0 0 0 0 1011.2 1008.4 0.0
28/02:30am 14.1 13.9 13.6 97 0.3 WSW 7 9 4 5 1011.5 1008.6 0.0
28/02:00am 14.7 15.9 13.9 95 0.5 CALM 0 0 0 0 1011.6 1008.7 0.0
28/01:30am 14.9 16.1 13.9 94 0.6 CALM 0 4 0 2 1011.8 1008.9 0.0
28/01:00am 14.5 14.6 13.9 96 0.3 NNE 6 7 3 4 1011.8 1008.9 0.0
28/12:30am 14.7 14.2 13.9 95 0.5 NNE 9 13 5 7 1011.7 1008.8 0.0
28/12:00am 14.6 14.1 13.8 95 0.5 NNE 9 11 5 6 1011.9 1009.0 0.0
 
Date/Time
EDT
Temp
°C
App
Temp
°C
Dew
Point
Rel
Hum
%
Delta-T
°C
Wind Press
QNH
hPa
Press
MSL
hPa
Rain
since 9 am
mm
Dir
 
Spd
km/h
Gust
km/h
Spd
kts
Gust
kts
27/11:30pm 15.2 15.4 14.1 93 0.6 NNE 6 9 3 5 1012.3 1009.5 0.0
27/11:00pm 15.2 16.5 14.1 93 0.6 CALM 0 0 0 0 1012.3 1009.5 0.0
27/10:30pm 15.3 16.7 14.3 94 0.6 CALM 0 0 0 0 1012.5 1009.7 0.0
27/10:00pm 15.2 15.4 14.1 93 0.6 WNW 6 7 3 4 1012.3 1009.5 0.0
27/09:30pm 15.4 16.3 14.1 92 0.8 NE 2 7 1 4 1012.0 1009.1 0.0
27/09:00pm 15.7 15.3 14.2 91 0.9 NE 9 13 5 7 1011.9 1009.0 0.0
27/08:30pm 15.9 16.5 14.3 90 0.9 NE 4 9 2 5 1011.8 1008.9 0.0
27/08:00pm 16.0 16.3 14.4 90 0.9 SW 6 9 3 5 1012.1 1009.3 0.0
27/07:30pm 16.1 15.8 14.3 89 1.1 SSW 9 13 5 7 1011.8 1008.9 0.0
27/07:00pm 16.5 16.2 14.5 88 1.2 S 9 17 5 9 1011.4 1008.5 0.0
27/06:30pm 17.2 16.3 14.8 86 1.4 SSW 13 19 7 10 1011.5 1008.6 0.0
27/06:00pm 17.7 17.2 14.8 83 1.7 S 11 17 6 9 1011.0 1008.2 0.0
27/05:30pm 18.0 16.7 14.7 81 2.0 SSE 15 24 8 13 1010.8 1007.9 0.0
27/05:00pm 19.3 18.5 15.2 77 2.5 S 13 20 7 11 1010.8 1007.9 0.0
27/04:30pm 20.3 19.5 16.1 77 2.6 SSW 15 26 8 14 1010.5 1007.6 0.0
27/04:00pm 20.2 19.4 15.2 73 3.1 SSW 13 19 7 10 1010.3 1007.4 0.0
27/03:30pm 20.6 19.9 15.4 72 3.2 SSW 13 20 7 11 1010.3 1007.4 0.0
27/03:00pm 20.9 20.5 16.3 75 2.9 SSW 13 20 7 11 1010.6 1007.7 0.0
27/02:30pm 19.6 18.5 15.3 76 2.6 S 15 24 8 13 1010.7 1007.8 0.0
27/02:00pm 20.6 20.0 15.6 73 3.1 SSW 13 20 7 11 1011.0 1008.2 0.0
27/01:30pm 20.1 20.1 16.3 79 2.4 S 11 20 6 11 1010.9 1008.1 0.0
27/01:00pm 20.2 19.4 15.2 73 3.1 SE 13 17 7 9 1011.0 1008.2 0.0
27/12:30pm 19.7 19.3 15.1 75 2.8 S 11 17 6 9 1011.4 1008.5 0.0
27/12:00pm 19.3 19.1 15.8 80 2.2 SE 11 15 6 8 1011.7 1008.8 0.0
27/11:30am 18.4 17.4 14.7 79 2.2 S 13 20 7 11 1012.0 1009.1 0.0
27/11:00am 19.4 19.5 15.5 78 2.4 SE 9 13 5 7 1012.0 1009.1 0.0
27/10:30am 18.9 19.2 15.0 78 2.4 SE 7 11 4 6 1011.7 1008.8 0.0
27/10:00am 18.4 18.6 14.7 79 2.2 ENE 7 9 4 5 1011.6 1008.7 0.0
27/09:30am 16.5 17.5 14.3 87 1.3 WNW 2 6 1 3 1011.6 1008.7 0.0
27/09:00am 15.9 15.9 14.1 89 1.1 WNW 7 9 4 5 1011.7 1008.8 0.0
27/08:30am 15.9 15.2 14.3 90 0.9 N 11 15 6 8 1011.5 1008.6 0.0
27/08:00am 14.5 13.1 13.4 93 0.6 N 13 15 7 8 1011.1 1008.3 0.0
27/07:30am 13.7 11.4 12.9 95 0.5 NNE 17 19 9 10 1010.9 1008.1 0.0
27/07:00am 13.5 12.3 12.7 95 0.5 NNE 11 15 6 8 1010.8 1007.9 0.0
27/06:30am 13.9 13.5 13.1 95 0.5 NNE 7 9 4 5 1010.9 1008.1 0.0
27/06:00am 13.9 13.1 13.0 94 0.5 NNE 9 13 5 7 1010.8 1007.9 0.0
27/05:30am 13.9 12.8 13.0 94 0.5 NNE 11 13 6 7 1010.6 1007.7 0.0
27/05:00am 14.1 15.1 13.3 95 0.5 CALM 0 0 0 0 1011.2 1008.4 0.0
27/04:30am 14.1 15.1 13.1 94 0.6 CALM 0 0 0 0 1011.4 1008.5 0.0
27/04:00am 14.0 14.2 13.2 95 0.5 NNE 4 7 2 4 1011.5 1008.6 0.0
27/03:30am 13.9 14.8 13.0 94 0.5 CALM 0 0 0 0 1011.6 1008.7 0.0
27/03:00am 13.9 14.8 13.0 94 0.5 CALM 0 0 0 0 1011.8 1008.9 0.0
27/02:30am 14.0 15.0 13.1 94 0.5 CALM 0 0 0 0 1011.9 1009.0 0.0
27/02:00am 14.1 15.0 13.0 93 0.6 CALM 0 0 0 0 1012.1 1009.3 0.0
27/01:30am 14.0 14.2 12.9 93 0.6 ESE 4 7 2 4 1012.3 1009.5 0.0
27/01:00am 14.0 14.2 12.9 93 0.6 ESE 4 7 2 4 1012.8 1009.9 0.0
27/12:30am 14.1 14.1 13.5 96 0.3 NE 6 9 3 5 1012.9 1010.0 0.0
27/12:00am 14.3 15.5 13.7 96 0.3 CALM 0 0 0 0 1013.0 1010.1 0.0
 
Date/Time
EDT
Temp
°C
App
Temp
°C
Dew
Point
Rel
Hum
%
Delta-T
°C
Wind Press
QNH
hPa
Press
MSL
hPa
Rain
since 9 am
mm
Dir
 
Spd
km/h
Gust
km/h
Spd
kts
Gust
kts
26/11:30pm 14.2 14.2 13.6 96 0.3 SSE 6 9 3 5 1013.1 1010.2 0.0
26/11:00pm 14.3 14.1 13.7 96 0.3 SSE 7 15 4 8 1013.2 1010.3 0.0
26/10:30pm 14.5 14.4 13.9 96 0.3 SSW 7 9 4 5 1013.1 1010.2 0.0
26/10:00pm 14.7 14.6 13.9 95 0.5 SSW 7 11 4 6 1013.2 1010.3 0.0

Other Formats:

Comma delimited format used in spreadsheet applications
http://www.bom.gov.au/fwo/IDV60801/IDV60801.94913.axf

JavaScript Object Notation format (JSON) in row-major order
http://www.bom.gov.au/fwo/IDV60801/IDV60801.94913.json